This is the latest recevied weather packets stored in our database for station/object KE8KMM. If no packets are shown the sender has not sent any weather packets the latest 10 day(s).
| Time | Temp. | Humidity | Pressure | Rain* | Wind** | Luminosity | Snow |
|---|---|---|---|---|---|---|---|
| 1777981065 | 16.67° C | 76% | 1006.5 hPa | 0 mm | - | 29 W/m² | - |
| 1777980761 | 16.67° C | 75% | 1006.3 hPa | 0 mm | - | 26 W/m² | - |
| 1777980457 | 16.67° C | 75% | 1006.1 hPa | 0 mm | - | 30 W/m² | - |
| 1777980155 | 16.11° C | 76% | 1006.2 hPa | 0 mm | - | 37 W/m² | - |
| 1777979855 | 15.56° C | 77% | 1006.3 hPa | 0 mm | - | 39 W/m² | - |
| 1777979551 | 15° C | 80% | 1006.1 hPa | 0 mm | - | 47 W/m² | - |
| 1777979247 | 14.44° C | 83% | 1006.2 hPa | 0 mm | - | 55 W/m² | - |
| 1777978945 | 13.89° C | 84% | 1006.5 hPa | 0 mm | - | 53 W/m² | - |
| 1777978641 | 13.89° C | 84% | 1006.2 hPa | 0 mm | - | 37 W/m² | - |
| 1777978337 | 13.89° C | 85% | 1006.2 hPa | 0 mm | - | 24 W/m² | - |
| 1777978034 | 14.44° C | 84% | 1006.1 hPa | 0 mm | - | 17 W/m² | - |
| 1777977731 | 14.44° C | 83% | 1005.9 hPa | 0 mm | - | 11 W/m² | - |
| 1777977428 | 15° C | 81% | 1006 hPa | 0 mm | - | 7 W/m² | - |
| 1777977125 | 15.56° C | 77% | 1006.1 hPa | 0 mm | - | 4 W/m² | - |
| 1777976822 | 15.56° C | 76% | 1006 hPa | 0 mm | - | 1 W/m² | - |
| 1777976520 | 15.56° C | 77% | 1005.9 hPa | 0 mm | - | 0 W/m² | - |
| 1777976219 | 15° C | 81% | 1006.1 hPa | 0 mm | - | 0 W/m² | - |
| 1777975915 | 15° C | 79% | 1006 hPa | 0 mm | - | 0 W/m² | - |
| 1777975611 | 15.56° C | 77% | 1006 hPa | 0 mm | - | 0 W/m² | - |
| 1777975308 | 15.56° C | 80% | 1005.8 hPa | 0 mm | - | 0 W/m² | - |
| 1777975004 | 15.56° C | 77% | 1005.9 hPa | 0 mm | - | 0 W/m² | - |
| 1777974702 | 15° C | 80% | 1005.9 hPa | 0 mm | - | 0 W/m² | - |
| 1777974397 | 15.56° C | 79% | 1005.9 hPa | 0 mm | - | 0 W/m² | - |
| 1777974094 | 16.11° C | 78% | 1005.7 hPa | 0 mm | - | 0 W/m² | - |
| 1777973790 | 16.11° C | 75% | 1005.8 hPa | 0 mm | - | 0 W/m² | - |
* Rain latest hour (hover to see other rain measurements)
** Current wind speed in m/s (hover to see current wind gust speed)